Amelia Court House, Virginia
Current Conditions -  °F | °C
As of 6:15 AM on Friday 24 Oct 2014 (Local Time) from KW81 Reporting Station
Clear Clear  
Wind Chill: 48°   Ceiling: Unl
Heat Index: 48°   Visibility: 10mi
Dew Point: 40°   Wind: 3mph
Humidity: 75%   Direction: 280°W
Pressure: 30"   Gusts: NA
Location:  37.34°N, 77.98°W
Report Text: KW81 241015Z AUTO 28003KT 10SM CLR 09/05 A3000 RMK AO1 T00880045
Loading
Personal Weather Stations






























Interactive Weather Map
Tropical Storm Tracking
New forecast layout! Learn more

10-Day Weather Forecast

Advertisements
Track Severe Weather on mobile